Time;durP1;ratioP1;P1;durP2;ratioP2;P2;SDS_P1;SDS_P2;PMS_P1;PMS_P2;Temp;Humidity;BMP_temperature;BMP_pressure;BME280_temperature;BME280_humidity;BME280_pressure;Samples;Min_cycle;Max_cycle;Signal;HPM_P1;HPM_P2
2024/02/10 00:01:27;;;;;;;0.20;0.20;;;;;;;9.22;100.00;96528.38;5038460;28;20059;-59
2024/02/10 00:03:56;;;;;;;0.30;0.30;;;;;;;9.13;100.00;96527.47;5019447;28;20081;-59
2024/02/10 00:06:25;;;;;;;0.30;0.30;;;;;;;9.17;100.00;96539.16;5020898;28;20052;-59
2024/02/10 00:08:52;;;;;;;0.20;0.20;;;;;;;9.14;100.00;96539.75;5035680;28;20049;-59
2024/02/10 00:11:19;;;;;;;0.22;0.22;;;;;;;9.19;100.00;96531.66;5014971;28;20045;-59
2024/02/10 00:13:49;;;;;;;0.20;0.20;;;;;;;9.09;100.00;96531.84;5034545;28;20044;-59
2024/02/10 00:16:16;;;;;;;0.28;0.28;;;;;;;9.10;100.00;96528.06;5037340;28;20077;-59
2024/02/10 00:18:46;;;;;;;0.20;0.20;;;;;;;9.20;100.00;96525.19;5044092;28;20041;-59
2024/02/10 00:21:13;;;;;;;0.22;0.22;;;;;;;9.17;100.00;96525.81;5036636;28;20117;-59
2024/02/10 00:23:41;;;;;;;0.20;0.20;;;;;;;9.04;100.00;96529.28;5034533;28;20045;-59
2024/02/10 00:26:10;;;;;;;0.30;0.30;;;;;;;9.11;100.00;96524.34;5032038;28;20557;-59
2024/02/10 00:28:38;;;;;;;0.30;0.30;;;;;;;9.10;100.00;96525.41;5035339;28;20064;-59
2024/02/10 00:31:07;;;;;;;0.20;0.20;;;;;;;9.17;100.00;96528.47;5019657;28;20049;-59
2024/02/10 00:33:35;;;;;;;0.30;0.30;;;;;;;9.14;100.00;96521.06;5036910;28;20053;-59
2024/02/10 00:36:02;;;;;;;0.30;0.30;;;;;;;9.22;100.00;96517.69;5005638;28;20593;-58
2024/02/10 00:38:30;;;;;;;0.22;0.22;;;;;;;9.16;100.00;96521.56;5042781;28;20258;-59
2024/02/10 00:41:02;;;;;;;0.20;0.20;;;;;;;9.17;100.00;96514.31;5037919;28;20064;-59
2024/02/10 00:43:29;;;;;;;0.30;0.30;;;;;;;9.12;100.00;96520.56;5041590;28;20064;-58
2024/02/10 00:45:59;;;;;;;0.20;0.20;;;;;;;9.18;100.00;96519.34;5040378;28;20051;-59
2024/02/10 00:48:28;;;;;;;0.20;0.20;;;;;;;9.14;100.00;96529.06;5021111;28;20307;-59
2024/02/10 00:50:59;;;;;;;0.20;0.20;;;;;;;9.15;100.00;96519.16;5022703;28;20817;-58
2024/02/10 00:53:26;;;;;;;0.20;0.20;;;;;;;9.19;100.00;96523.63;5014876;28;20496;-59
2024/02/10 00:55:54;;;;;;;0.20;0.20;;;;;;;9.27;100.00;96530.16;5022692;28;20100;-59
2024/02/10 00:58:21;;;;;;;0.25;0.25;;;;;;;9.25;100.00;96530.44;5016244;28;20108;-59
2024/02/10 01:00:51;;;;;;;;;;;;;;;9.33;100.00;96536.16;5020984;28;20563;-59
2024/02/10 01:03:18;;;;;;;0.28;0.28;;;;;;;9.27;100.00;96530.94;5018188;28;20761;-60
2024/02/10 01:05:47;;;;;;;0.20;0.20;;;;;;;9.15;100.00;96522.63;5018481;28;20049;-59
2024/02/10 01:08:15;;;;;;;0.20;0.20;;;;;;;9.23;100.00;96521.91;5016928;28;20442;-59
2024/02/10 01:10:44;;;;;;;0.20;0.20;;;;;;;9.21;100.00;96520.63;5018504;28;20042;-59
2024/02/10 01:13:11;;;;;;;0.30;0.30;;;;;;;9.19;100.00;96520.94;5028915;28;20448;-59
2024/02/10 01:15:38;;;;;;;0.20;0.20;;;;;;;9.21;100.00;96513.44;5014656;28;20043;-60
2024/02/10 01:18:09;;;;;;;0.20;0.20;;;;;;;9.10;100.00;96516.59;5021276;28;20045;-59
2024/02/10 01:20:38;;;;;;;0.20;0.20;;;;;;;9.19;100.00;96522.84;5021301;28;20567;-60
2024/02/10 01:23:07;;;;;;;0.20;0.20;;;;;;;9.05;100.00;96526.28;5019259;28;20038;-59
2024/02/10 01:25:35;;;;;;;0.30;0.30;;;;;;;9.15;100.00;96525.31;5014716;28;20401;-59
2024/02/10 01:28:02;;;;;;;0.28;0.28;;;;;;;9.19;100.00;96528.19;5017247;28;20515;-59
2024/02/10 01:30:29;;;;;;;0.10;0.10;;;;;;;9.21;100.00;96529.47;5018765;28;20046;-59
2024/02/10 01:32:57;;;;;;;0.20;0.20;;;;;;;9.23;100.00;96526.47;5033499;28;20053;-59
2024/02/10 01:35:25;;;;;;;0.20;0.20;;;;;;;9.24;100.00;96534.22;5012515;28;20464;-59
2024/02/10 01:37:53;;;;;;;0.20;0.20;;;;;;;9.19;100.00;96523.63;5012625;28;20052;-59
2024/02/10 01:40:24;;;;;;;0.20;0.20;;;;;;;9.15;100.00;96527.97;5020340;28;20050;-59
2024/02/10 01:42:51;;;;;;;0.20;0.20;;;;;;;9.09;100.00;96531.84;5036179;28;20614;-59
2024/02/10 01:45:19;;;;;;;0.22;0.22;;;;;;;9.17;100.00;96514.31;5015923;28;20704;-59
2024/02/10 01:47:46;;;;;;;0.20;0.20;;;;;;;9.12;100.00;96520.56;5018648;28;20065;-59
2024/02/10 01:50:14;;;;;;;0.30;0.30;;;;;;;9.13;100.00;96521.34;5026746;28;20131;-59
2024/02/10 01:52:41;;;;;;;0.30;0.30;;;;;;;9.08;100.00;96524.91;5042778;28;20044;-59
2024/02/10 01:55:10;;;;;;;0.20;0.20;;;;;;;9.14;100.00;96529.06;5039867;28;20044;-59
2024/02/10 01:57:38;;;;;;;0.25;0.25;;;;;;;9.15;100.00;96524.50;5020994;28;20476;-59
2024/02/10 02:00:06;;;;;;;0.20;0.20;;;;;;;9.10;100.00;96516.59;5037971;28;20574;-59
2024/02/10 02:02:34;;;;;;;0.30;0.30;;;;;;;9.18;100.00;96524.69;5035071;28;20049;-59
2024/02/10 02:05:01;;;;;;;0.20;0.20;;;;;;;9.04;100.00;96518.59;5034599;28;20144;-59
2024/02/10 02:07:30;;;;;;;0.20;0.20;;;;;;;9.14;100.00;96510.38;5044954;28;20052;-59
2024/02/10 02:09:59;;;;;;;0.20;0.20;;;;;;;9.08;100.00;96514.22;5044119;28;20055;-59
2024/02/10 02:12:32;;;;;;;0.25;0.25;;;;;;;9.03;100.00;96517.00;5040005;28;20091;-59
2024/02/10 02:15:01;;;;;;;0.30;0.30;;;;;;;9.11;100.00;96504.81;5034488;28;20034;-59
2024/02/10 02:17:28;;;;;;;0.30;0.30;;;;;;;9.02;100.00;96504.75;5042725;28;20489;-59
2024/02/10 02:19:56;;;;;;;0.25;0.25;;;;;;;8.98;100.00;96509.09;5037782;28;20136;-59
2024/02/10 02:22:25;;;;;;;0.22;0.22;;;;;;;9.01;100.00;96513.81;5022659;28;20057;-59
2024/02/10 02:24:54;;;;;;;0.20;0.20;;;;;;;9.00;100.00;96512.25;5036582;28;20033;-59
2024/02/10 02:27:21;;;;;;;0.20;0.20;;;;;;;8.98;100.00;96504.53;5040762;28;20057;-59
2024/02/10 02:29:49;;;;;;;0.30;0.30;;;;;;;9.03;100.00;96508.97;5039681;28;20052;-59
2024/02/10 02:32:17;;;;;;;0.30;0.30;;;;;;;9.05;100.00;96509.47;5024175;28;20450;-58
2024/02/10 02:34:46;;;;;;;0.40;0.40;;;;;;;8.96;100.00;96504.06;5035879;28;20040;-59
2024/02/10 02:37:13;;;;;;;0.20;0.20;;;;;;;8.88;100.00;96519.97;5038572;28;20057;-59
2024/02/10 02:39:44;;;;;;;0.30;0.30;;;;;;;8.88;100.00;96511.97;5033644;28;20064;-59
2024/02/10 02:42:13;;;;;;;0.22;0.22;;;;;;;8.89;100.00;96495.66;5008073;28;20041;-59
2024/02/10 02:44:42;;;;;;;0.30;0.30;;;;;;;8.90;100.00;96507.13;5035952;28;20058;-59
2024/02/10 02:47:09;;;;;;;0.30;0.30;;;;;;;8.82;100.00;96498.72;5030945;28;20061;-58
2024/02/10 02:49:37;;;;;;;0.22;0.22;;;;;;;8.84;100.00;96493.09;5041848;28;20155;-59
2024/02/10 02:52:07;;;;;;;0.20;0.20;;;;;;;8.75;100.00;96497.53;5025068;28;20052;-59
2024/02/10 02:54:37;;;;;;;0.20;0.20;;;;;;;8.74;100.00;96502.09;5042675;28;20488;-59
2024/02/10 02:57:05;;;;;;;0.25;0.25;;;;;;;8.77;100.00;96496.16;5030546;28;20073;-59
2024/02/10 02:59:36;;;;;;;0.30;0.30;;;;;;;8.76;100.00;96491.91;5038434;28;20045;-58
2024/02/10 03:02:05;;;;;;;0.30;0.30;;;;;;;8.69;100.00;96493.38;5034086;28;20048;-59
2024/02/10 03:04:32;;;;;;;0.20;0.20;;;;;;;8.68;100.00;96492.56;5016300;28;20401;-59
2024/02/10 03:06:59;;;;;;;0.30;0.30;;;;;;;8.66;100.00;96492.06;5034134;28;20041;-59
2024/02/10 03:09:29;;;;;;;0.40;0.40;;;;;;;8.59;100.00;96489.81;5031677;28;20044;-59
2024/02/10 03:11:56;;;;;;;0.40;0.40;;;;;;;8.60;100.00;96488.72;5036688;28;20025;-59
2024/02/10 03:14:23;;;;;;;0.30;0.30;;;;;;;8.63;100.00;96490.78;5022180;28;20048;-59
2024/02/10 03:16:52;;;;;;;0.40;0.40;;;;;;;8.64;100.00;96494.28;5019294;28;20679;-59
2024/02/10 03:19:19;;;;;;;0.28;0.28;;;;;;;8.59;100.00;96491.69;5033153;28;20499;-58
2024/02/10 03:21:46;;;;;;;0.30;0.30;;;;;;;8.60;100.00;96494.06;5040530;28;20048;-58
2024/02/10 03:24:13;;;;;;;0.30;0.30;;;;;;;8.62;100.00;96485.75;5036355;28;20041;-59
2024/02/10 03:26:40;;;;;;;0.20;0.20;;;;;;;8.68;100.00;96489.91;5024812;28;20047;-59
2024/02/10 03:29:09;;;;;;;0.30;0.30;;;;;;;8.59;100.00;96499.72;5036475;28;20052;-59
2024/02/10 03:31:37;;;;;;;0.30;0.30;;;;;;;8.56;100.00;96492.28;5037248;28;20141;-59
2024/02/10 03:34:05;;;;;;;0.30;0.30;;;;;;;8.60;100.00;96495.94;5036108;28;20048;-59
2024/02/10 03:36:32;;;;;;;0.30;0.30;;;;;;;8.43;100.00;96489.28;5004513;28;20118;-59
2024/02/10 03:39:03;;;;;;;0.30;0.30;;;;;;;8.46;100.00;96492.47;5038706;28;20400;-59
2024/02/10 03:41:31;;;;;;;0.20;0.20;;;;;;;8.48;100.00;96488.41;5031417;28;20045;-59
2024/02/10 03:44:00;;;;;;;0.20;0.20;;;;;;;8.50;100.00;96482.78;5033332;28;20107;-59
2024/02/10 03:46:31;;;;;;;0.30;0.30;;;;;;;8.61;100.00;96484.97;5036866;28;20562;-59
2024/02/10 03:48:59;;;;;;;0.20;0.20;;;;;;;8.50;100.00;96478.22;5032952;28;20065;-58
2024/02/10 03:51:29;;;;;;;0.30;0.30;;;;;;;8.55;100.00;96485.34;5023877;28;20140;-59
2024/02/10 03:53:58;;;;;;;0.30;0.30;;;;;;;8.47;100.00;96478.84;5019350;28;20057;-59
2024/02/10 03:56:27;;;;;;;0.30;0.30;;;;;;;8.45;100.00;96478.34;5022976;28;20049;-59
2024/02/10 03:58:56;;;;;;;0.20;0.20;;;;;;;8.42;100.00;96482.38;5041554;28;20094;-59
2024/02/10 04:01:23;;;;;;;0.30;0.30;;;;;;;8.38;100.00;96491.25;5019698;28;20041;-58
2024/02/10 04:03:51;;;;;;;0.22;0.22;;;;;;;8.46;100.00;96490.56;5040134;28;20052;-59
2024/02/10 04:06:18;;;;;;;0.20;0.20;;;;;;;8.49;100.00;96491.91;5036150;28;20136;-58
2024/02/10 04:08:49;;;;;;;0.30;0.30;;;;;;;8.63;100.00;96490.78;5022164;28;20056;-59
2024/02/10 04:11:17;;;;;;;0.30;0.30;;;;;;;8.66;100.00;96496.63;5030641;28;20037;-59
2024/02/10 04:13:44;;;;;;;0.20;0.20;;;;;;;8.72;100.00;96485.56;5037975;28;20335;-59
2024/02/10 04:16:12;;;;;;;0.20;0.20;;;;;;;8.72;100.00;96485.56;5039532;28;20376;-59
2024/02/10 04:18:39;;;;;;;0.20;0.20;;;;;;;8.72;100.00;96484.78;5034629;28;20048;-59
2024/02/10 04:21:07;;;;;;;0.30;0.30;;;;;;;8.74;100.00;96486.06;5032126;28;20046;-58
2024/02/10 04:23:35;;;;;;;0.28;0.28;;;;;;;8.70;100.00;96477.06;5039334;28;20660;-59
2024/02/10 04:26:04;;;;;;;0.30;0.30;;;;;;;8.64;100.00;96479.03;5031033;28;20579;-59
2024/02/10 04:28:31;;;;;;;0.20;0.20;;;;;;;8.61;100.00;96478.81;5047579;28;20044;-59
2024/02/10 04:30:58;;;;;;;0.30;0.30;;;;;;;8.67;100.00;96477.66;5038911;28;20040;-59
2024/02/10 04:33:25;;;;;;;0.28;0.28;;;;;;;8.61;100.00;96482.31;5036466;28;20116;-59
2024/02/10 04:35:56;;;;;;;;;;;;;;;8.65;100.00;96482.50;5037117;28;20606;-59
2024/02/10 04:38:23;;;;;;;0.30;0.30;;;;;;;8.70;100.00;96485.06;5025026;28;19925;-59
2024/02/10 04:40:51;;;;;;;0.30;0.30;;;;;;;8.69;100.00;96485.38;5013978;28;20049;-58
2024/02/10 04:43:19;;;;;;;0.20;0.20;;;;;;;8.70;100.00;96478.94;5036072;28;20045;-60
2024/02/10 04:45:48;;;;;;;0.30;0.30;;;;;;;8.70;100.00;96474.38;5034829;28;20053;-59
2024/02/10 04:48:18;;;;;;;0.20;0.20;;;;;;;8.69;100.00;96472.81;5035956;28;20127;-59
2024/02/10 04:50:45;;;;;;;0.30;0.30;;;;;;;8.63;100.00;96477.44;5031049;28;20049;-59
2024/02/10 04:53:14;;;;;;;0.25;0.25;;;;;;;8.76;100.00;96475.06;5036795;28;20053;-59
2024/02/10 04:55:41;;;;;;;0.30;0.30;;;;;;;8.74;100.00;96477.28;5032350;28;20049;-59
2024/02/10 04:58:09;;;;;;;0.20;0.20;;;;;;;8.72;100.00;96476.78;5036030;28;20044;-59
2024/02/10 05:00:37;;;;;;;0.20;0.20;;;;;;;8.72;100.00;96480.22;5035981;28;20056;-59
2024/02/10 05:03:05;;;;;;;0.20;0.20;;;;;;;8.74;100.00;96488.72;5032785;28;20085;-59
2024/02/10 05:05:32;;;;;;;0.30;0.30;;;;;;;8.68;100.00;96481.09;5026236;28;20049;-59
2024/02/10 05:07:59;;;;;;;0.20;0.20;;;;;;;8.71;100.00;96486.66;5035930;28;20080;-59
2024/02/10 05:10:27;;;;;;;0.20;0.20;;;;;;;8.69;100.00;96486.16;5034929;28;20053;-59
2024/02/10 05:12:55;;;;;;;0.30;0.30;;;;;;;8.59;100.00;96489.03;5025026;28;20040;-59
2024/02/10 05:15:23;;;;;;;0.20;0.20;;;;;;;8.56;100.00;96484.25;5038026;28;20045;-59
2024/02/10 05:17:52;;;;;;;0.30;0.30;;;;;;;8.43;100.00;96480.50;5018009;28;20507;-59
2024/02/10 05:20:20;;;;;;;0.30;0.30;;;;;;;8.52;100.00;96491.28;5035291;28;20527;-59
2024/02/10 05:22:51;;;;;;;0.20;0.20;;;;;;;8.44;100.00;96484.75;5038859;28;20048;-59
2024/02/10 05:25:19;;;;;;;0.20;0.20;;;;;;;8.50;100.00;96493.47;5034832;28;20041;-59
2024/02/10 05:27:46;;;;;;;0.30;0.30;;;;;;;8.54;100.00;96478.44;5023228;28;20045;-59
2024/02/10 05:30:20;;;;;;;0.20;0.20;;;;;;;8.54;100.00;96479.22;5037837;28;20044;-59
2024/02/10 05:32:49;;;;;;;0.30;0.30;;;;;;;8.55;100.00;96482.69;5038111;28;20057;-59
2024/02/10 05:35:19;;;;;;;0.20;0.20;;;;;;;8.50;100.00;96485.47;5025223;28;20130;-58
2024/02/10 05:37:47;;;;;;;0.20;0.20;;;;;;;8.51;100.00;96489.69;5038256;28;20041;-59
2024/02/10 05:40:15;;;;;;;0.20;0.20;;;;;;;8.52;100.00;96486.75;5037074;28;20044;-59
2024/02/10 05:42:44;;;;;;;0.20;0.20;;;;;;;8.54;100.00;96489.13;5041036;28;20239;-59
2024/02/10 05:45:12;;;;;;;0.20;0.20;;;;;;;8.53;100.00;96498.22;5048181;28;20479;-59
2024/02/10 05:47:39;;;;;;;0.40;0.40;;;;;;;8.48;100.00;96504.44;5036547;28;20052;-60
2024/02/10 05:50:11;;;;;;;0.20;0.20;;;;;;;8.45;100.00;96497.00;5037132;28;20424;-58
2024/02/10 05:52:42;;;;;;;0.20;0.20;;;;;;;8.35;100.00;96500.63;5040221;28;20049;-59
2024/02/10 05:55:10;;;;;;;0.20;0.20;;;;;;;8.43;100.00;96507.97;5015162;28;20128;-60
2024/02/10 05:57:38;;;;;;;0.30;0.30;;;;;;;8.42;100.00;96503.72;5038383;28;20136;-59
2024/02/10 06:00:09;;;;;;;0.30;0.30;;;;;;;8.48;100.00;96503.63;5036110;28;20155;-59
2024/02/10 06:02:39;;;;;;;0.25;0.25;;;;;;;8.57;100.00;96504.56;5020878;28;20515;-59
2024/02/10 06:05:09;;;;;;;0.30;0.30;;;;;;;8.56;100.00;96502.94;5037622;28;20103;-59
2024/02/10 06:07:36;;;;;;;0.20;0.20;;;;;;;8.61;100.00;96505.53;5032736;28;20053;-59
2024/02/10 06:10:09;;;;;;;0.30;0.30;;;;;;;8.53;100.00;96500.88;5040600;28;20125;-59
2024/02/10 06:12:39;;;;;;;0.30;0.30;;;;;;;8.60;100.00;96499.41;5037931;28;20052;-59
2024/02/10 06:15:09;;;;;;;0.20;0.20;;;;;;;8.67;100.00;96496.34;5037677;28;20041;-59
2024/02/10 06:17:40;;;;;;;0.30;0.30;;;;;;;8.54;100.00;96495.25;5018146;28;20395;-59
2024/02/10 06:20:12;;;;;;;;;;;;;;;8.65;100.00;96495.84;5020661;28;20315;-58
2024/02/10 06:22:39;;;;;;;0.28;0.28;;;;;;;8.61;100.00;96497.50;5038317;28;19921;-59
2024/02/10 06:25:11;;;;;;;0.20;0.20;;;;;;;8.61;100.00;96500.19;5040284;28;20128;-59
2024/02/10 06:27:41;;;;;;;0.30;0.30;;;;;;;8.53;100.00;96499.00;5042868;28;20041;-59
2024/02/10 06:30:11;;;;;;;0.30;0.30;;;;;;;8.59;100.00;96507.72;5035149;28;20087;-59
2024/02/10 06:32:39;;;;;;;;;;;;;;;8.60;100.00;96514.63;5042599;28;20309;-58
2024/02/10 06:35:09;;;;;;;0.30;0.30;;;;;;;8.56;100.00;96513.63;5037558;28;19925;-59
2024/02/10 06:37:37;;;;;;;0.25;0.25;;;;;;;8.59;100.00;96519.19;5038110;28;20747;-58
2024/02/10 06:40:05;;;;;;;0.22;0.22;;;;;;;8.57;100.00;96521.34;5021917;28;20053;-59
2024/02/10 06:42:35;;;;;;;0.30;0.30;;;;;;;8.53;100.00;96519.56;5035897;28;20056;-59
2024/02/10 06:45:07;;;;;;;0.30;0.30;;;;;;;8.51;100.00;96522.53;5038457;28;20045;-59
2024/02/10 06:47:34;;;;;;;0.20;0.20;;;;;;;8.55;100.00;96518.19;5032306;28;20053;-59
2024/02/10 06:50:04;;;;;;;0.22;0.22;;;;;;;8.55;100.00;96522.72;5041265;28;20049;-59
2024/02/10 06:52:34;;;;;;;0.30;0.30;;;;;;;8.59;100.00;96523.75;5035094;28;20112;-59
2024/02/10 06:55:01;;;;;;;0.30;0.30;;;;;;;8.61;100.00;96526.88;5003709;28;20053;-59
2024/02/10 06:57:29;;;;;;;0.30;0.30;;;;;;;8.66;100.00;96537.47;5034781;28;20045;-59
2024/02/10 06:59:58;;;;;;;0.20;0.20;;;;;;;8.65;100.00;96533.22;5026753;28;20048;-59
2024/02/10 07:02:25;;;;;;;0.20;0.20;;;;;;;8.64;100.00;96542.34;5038127;28;20340;-59
2024/02/10 07:04:55;;;;;;;0.25;0.25;;;;;;;8.68;100.00;96537.97;5030119;28;20048;-59
2024/02/10 07:07:24;;;;;;;0.20;0.20;;;;;;;8.67;100.00;96543.63;5039128;28;20037;-58
2024/02/10 07:09:58;;;;;;;0.20;0.20;;;;;;;8.71;100.00;96541.94;5028527;28;20037;-58
2024/02/10 07:12:26;;;;;;;0.30;0.30;;;;;;;8.70;100.00;96548.38;5034695;28;20052;-59
2024/02/10 07:14:56;;;;;;;0.25;0.25;;;;;;;8.74;100.00;96539.47;5039293;28;20411;-59
2024/02/10 07:17:25;;;;;;;0.30;0.30;;;;;;;8.73;100.00;96539.75;5019072;28;20065;-59
2024/02/10 07:19:54;;;;;;;0.20;0.20;;;;;;;8.79;100.00;96550.06;5034592;28;20562;-59
2024/02/10 07:22:25;;;;;;;0.22;0.22;;;;;;;8.76;100.00;96549.84;5021583;28;20069;-59
2024/02/10 07:24:55;;;;;;;0.20;0.20;;;;;;;8.76;100.00;96553.31;4998407;28;20080;-59
2024/02/10 07:27:26;;;;;;;;;;;;;;;8.84;100.00;96555.31;5023387;28;20561;-59
2024/02/10 07:29:56;;;;;;;0.30;0.30;;;;;;;8.84;100.00;96555.31;5039694;28;20568;-59
2024/02/10 07:32:26;;;;;;;0.30;0.30;;;;;;;8.86;100.00;96555.00;5042251;28;20184;-59
2024/02/10 07:34:54;;;;;;;0.30;0.30;;;;;;;8.96;100.00;96559.34;5022306;28;20041;-58
2024/02/10 07:37:21;;;;;;;0.20;0.20;;;;;;;8.99;100.00;96558.78;5039637;28;20499;-59
2024/02/10 07:39:50;;;;;;;0.20;0.20;;;;;;;8.89;100.00;96559.75;5031425;28;20486;-59
2024/02/10 07:42:20;;;;;;;0.20;0.20;;;;;;;8.99;100.00;96564.13;5037432;28;20122;-59
2024/02/10 07:44:49;;;;;;;0.30;0.30;;;;;;;9.10;100.00;96564.69;5018408;28;20103;-59
2024/02/10 07:47:19;;;;;;;0.20;0.20;;;;;;;9.19;100.00;96563.72;5039436;28;20061;-59
2024/02/10 07:49:48;;;;;;;0.30;0.30;;;;;;;9.31;100.00;96565.88;5032907;28;22108;-59
2024/02/10 07:52:15;;;;;;;0.20;0.20;;;;;;;9.26;100.00;96561.44;5038000;28;20045;-59
2024/02/10 07:54:45;;;;;;;0.20;0.20;;;;;;;9.37;100.00;96566.56;5032379;28;20065;-59
2024/02/10 07:57:19;;;;;;;;;;;;;;;9.44;100.00;96565.06;5033950;28;20334;-59
2024/02/10 07:59:48;;;;;;;0.30;0.30;;;;;;;9.55;100.00;96572.88;5024295;28;20010;-59
2024/02/10 08:02:20;;;;;;;0.30;0.30;;;;;;;9.31;100.00;96565.88;5015299;28;20223;-59
2024/02/10 08:04:51;;;;;;;0.20;0.20;;;;;;;9.37;100.00;96569.25;5035933;28;20307;-59
2024/02/10 08:07:18;;;;;;;0.30;0.30;;;;;;;9.28;100.00;96572.63;5040710;28;20403;-58
2024/02/10 08:09:47;;;;;;;0.20;0.20;;;;;;;9.61;100.00;96575.13;5021804;28;20037;-59
2024/02/10 08:12:17;;;;;;;0.30;0.30;;;;;;;10.75;100.00;96580.22;5007580;28;20041;-59
2024/02/10 08:14:47;;;;;;;0.30;0.30;;;;;;;11.53;100.00;96573.53;5034798;28;20073;-59
2024/02/10 08:17:14;;;;;;;0.30;0.30;;;;;;;12.26;100.00;96571.88;5030175;28;20053;-59
2024/02/10 08:19:42;;;;;;;0.25;0.25;;;;;;;12.52;100.00;96573.72;5021420;28;20507;-59
2024/02/10 08:22:11;;;;;;;0.30;0.30;;;;;;;11.55;100.00;96569.44;5022144;28;20140;-59
2024/02/10 08:24:39;;;;;;;0.20;0.20;;;;;;;11.16;100.00;96576.44;5035093;28;20048;-59
2024/02/10 08:27:08;;;;;;;0.20;0.20;;;;;;;11.66;100.00;96576.09;5037057;28;20071;-58
2024/02/10 08:29:35;;;;;;;0.30;0.30;;;;;;;12.52;100.00;96571.03;5039264;28;20076;-59
2024/02/10 08:32:02;;;;;;;0.20;0.20;;;;;;;12.89;100.00;96574.09;5037448;28;20491;-59
2024/02/10 08:34:38;;;;;;;0.15;0.15;;;;;;;12.11;100.00;96576.94;5033358;28;20064;-59
2024/02/10 08:37:05;;;;;;;0.20;0.20;;;;;;;11.92;100.00;96574.56;5035810;28;20502;-59
2024/02/10 08:39:34;;;;;;;0.20;0.20;;;;;;;11.38;100.00;96572.88;5015665;28;20456;-59
2024/02/10 08:42:05;;;;;;;0.20;0.20;;;;;;;11.08;100.00;96571.03;5038722;28;20573;-59
2024/02/10 08:44:33;;;;;;;0.20;0.20;;;;;;;11.10;100.00;96568.84;5014403;28;20503;-59
2024/02/10 08:47:03;;;;;;;0.20;0.20;;;;;;;12.56;100.00;96569.28;5019474;28;20137;-58
2024/02/10 08:49:30;;;;;;;0.20;0.20;;;;;;;12.25;100.00;96574.84;5035296;28;20054;-59
2024/02/10 08:51:58;;;;;;;0.20;0.20;;;;;;;12.43;100.00;96573.75;5034270;28;20621;-59
2024/02/10 08:54:29;;;;;;;0.30;0.30;;;;;;;13.58;100.00;96573.78;5040155;28;20103;-59
2024/02/10 08:57:00;;;;;;;0.20;0.20;;;;;;;14.19;96.48;96565.22;5026533;28;20076;-59
2024/02/10 08:59:31;;;;;;;0.15;0.15;;;;;;;13.64;96.25;96557.44;5018621;28;20800;-59
2024/02/10 09:02:02;;;;;;;0.15;0.15;;;;;;;13.29;99.24;96569.19;5033457;28;20076;-59
2024/02/10 09:04:30;;;;;;;0.20;0.20;;;;;;;12.28;100.00;96569.66;5037092;28;20052;-59
2024/02/10 09:06:57;;;;;;;0.20;0.20;;;;;;;12.15;100.00;96570.59;5037588;28;20567;-59
2024/02/10 09:09:25;;;;;;;0.20;0.20;;;;;;;13.25;100.00;96565.53;5034669;28;20092;-59
2024/02/10 09:11:54;;;;;;;0.20;0.20;;;;;;;12.48;100.00;96572.75;5042392;28;20037;-58
2024/02/10 09:14:23;;;;;;;0.20;0.20;;;;;;;13.78;99.00;96571.44;5023493;28;20407;-59
2024/02/10 09:16:50;;;;;;;0.20;0.20;;;;;;;11.99;100.00;96574.88;5040492;28;20037;-59
2024/02/10 09:19:18;;;;;;;0.20;0.20;;;;;;;11.86;100.00;96574.72;5035842;28;20559;-59
2024/02/10 09:21:45;;;;;;;0.10;0.10;;;;;;;11.19;100.00;96575.03;5021586;28;20045;-59
2024/02/10 09:24:15;;;;;;;0.10;0.10;;;;;;;10.09;100.00;96579.94;5042397;28;20176;-58
2024/02/10 09:26:43;;;;;;;0.10;0.10;;;;;;;10.31;100.00;96570.38;5037933;28;20175;-58
2024/02/10 09:29:10;;;;;;;0.15;0.15;;;;;;;10.22;100.00;96580.19;5042393;28;20641;-59
2024/02/10 09:31:44;;;;;;;0.30;0.30;;;;;;;10.35;100.00;96568.66;5016316;28;20455;-58
2024/02/10 09:34:12;;;;;;;0.13;0.13;;;;;;;10.30;100.00;96566.09;5040718;28;20128;-59
2024/02/10 09:36:42;;;;;;;0.30;0.30;;;;;;;10.73;100.00;96566.34;5036835;28;20404;-59
2024/02/10 09:39:09;;;;;;;0.30;0.30;;;;;;;11.80;100.00;96562.50;5026914;28;20045;-59
2024/02/10 09:41:39;;;;;;;0.10;0.10;;;;;;;11.19;100.00;96572.34;5025506;28;20060;-59
2024/02/10 09:44:10;;;;;;;0.20;0.20;;;;;;;10.43;100.00;96578.63;5019054;28;20118;-59
2024/02/10 09:46:39;;;;;;;0.20;0.20;;;;;;;10.09;100.00;96569.25;5038246;28;20045;-59
2024/02/10 09:49:08;;;;;;;0.20;0.20;;;;;;;10.24;100.00;96567.31;5035250;28;20050;-59
2024/02/10 09:51:40;;;;;;;0.30;0.30;;;;;;;10.21;100.00;96555.31;5037626;28;20045;-59
2024/02/10 09:54:07;;;;;;;0.30;0.30;;;;;;;10.08;100.00;96556.16;5021457;28;20146;-59
2024/02/10 09:56:35;;;;;;;0.20;0.20;;;;;;;10.14;100.00;96553.06;5039360;28;20347;-59
2024/02/10 09:59:03;;;;;;;0.20;0.20;;;;;;;10.55;100.00;96548.59;5044642;28;20045;-59
2024/02/10 10:01:36;;;;;;;0.10;0.10;;;;;;;10.87;100.00;96538.66;5026999;28;20048;-60
2024/02/10 10:04:09;;;;;;;0.20;0.20;;;;;;;11.20;100.00;96539.06;5025729;28;20060;-58
2024/02/10 10:06:39;;;;;;;0.30;0.30;;;;;;;11.13;100.00;96541.41;5028984;28;20450;-59
2024/02/10 10:09:08;;;;;;;0.30;0.30;;;;;;;11.64;100.00;96535.38;5021635;28;20041;-59
2024/02/10 10:11:39;;;;;;;0.20;0.20;;;;;;;11.12;100.00;96539.84;5039199;28;20052;-59
2024/02/10 10:14:07;;;;;;;0.10;0.10;;;;;;;10.64;100.00;96540.63;5036182;28;20043;-59
2024/02/10 10:16:36;;;;;;;0.20;0.20;;;;;;;10.37;100.00;96539.69;5021744;28;20057;-59
2024/02/10 10:19:07;;;;;;;0.13;0.13;;;;;;;10.19;100.00;96541.44;5038923;28;20460;-59
2024/02/10 10:21:37;;;;;;;0.20;0.20;;;;;;;9.90;100.00;96560.59;5038557;28;20045;-59
2024/02/10 10:24:07;;;;;;;0.10;0.10;;;;;;;10.21;100.00;96559.84;5031932;28;20053;-59
2024/02/10 10:26:36;;;;;;;;;;;;;;;10.10;100.00;96553.97;5022375;28;20049;-59
2024/02/10 10:29:05;;;;;;;0.20;0.20;;;;;;;10.28;100.00;96555.72;5040565;28;19929;-59
2024/02/10 10:31:32;;;;;;;0.20;0.20;;;;;;;10.39;100.00;96550.09;5039615;28;20036;-58
2024/02/10 10:34:00;;;;;;;0.10;0.10;;;;;;;10.09;100.00;96547.03;5015329;28;20385;-59
2024/02/10 10:36:36;;;;;;;0.20;0.20;;;;;;;9.88;100.00;96558.22;5031116;28;20048;-58
2024/02/10 10:39:03;;;;;;;0.20;0.20;;;;;;;9.94;100.00;96566.91;5029766;28;20487;-59
2024/02/10 10:41:33;;;;;;;0.20;0.20;;;;;;;9.86;100.00;96559.59;5042651;28;20063;-58
2024/02/10 10:44:01;;;;;;;0.20;0.20;;;;;;;10.11;100.00;96556.34;5041109;28;20454;-58
2024/02/10 10:46:29;;;;;;;0.20;0.20;;;;;;;10.02;100.00;96552.81;5019661;28;20519;-58
2024/02/10 10:49:01;;;;;;;0.25;0.25;;;;;;;10.12;100.00;96546.44;5036442;28;20145;-58
2024/02/10 10:51:48;;;;;;;0.20;0.20;;;;;;;10.15;100.00;96543.13;5036126;28;20045;-58
2024/02/10 10:54:15;;;;;;;0.30;0.30;;;;;;;9.94;100.00;96545.50;5042418;28;20036;-59
2024/02/10 10:56:43;;;;;;;0.20;0.20;;;;;;;9.75;100.00;96542.22;5038798;28;20498;-58
2024/02/10 10:59:10;;;;;;;0.20;0.20;;;;;;;9.84;100.00;96540.41;5042408;28;20046;-58
2024/02/10 11:01:38;;;;;;;0.30;0.30;;;;;;;10.03;100.00;96543.66;5019720;28;20078;-59
2024/02/10 11:04:07;;;;;;;0.22;0.22;;;;;;;10.17;100.00;96545.53;5042289;28;20156;-59
2024/02/10 11:06:36;;;;;;;0.20;0.20;;;;;;;10.53;100.00;96535.53;5040056;28;20079;-58
2024/02/10 11:09:04;;;;;;;0.28;0.28;;;;;;;10.43;100.00;96534.97;5037048;28;20053;-60
2024/02/10 11:11:36;;;;;;;0.20;0.20;;;;;;;10.19;100.00;96536.09;5009724;28;20511;-59
2024/02/10 11:14:09;;;;;;;0.22;0.22;;;;;;;10.23;100.00;96531.69;5021875;28;20508;-59
2024/02/10 11:16:36;;;;;;;0.20;0.20;;;;;;;10.12;100.00;96531.16;5028041;28;20041;-59
2024/02/10 11:19:11;;;;;;;0.30;0.30;;;;;;;10.22;100.00;96524.75;5021397;28;20049;-58
2024/02/10 11:21:41;;;;;;;0.20;0.20;;;;;;;10.41;100.00;96527.28;5031884;28;20068;-57
2024/02/10 11:24:11;;;;;;;0.22;0.22;;;;;;;10.86;100.00;96523.66;5034154;28;20439;-57
2024/02/10 11:26:40;;;;;;;0.25;0.25;;;;;;;11.05;100.00;96520.75;5033444;28;21023;-58
2024/02/10 11:29:08;;;;;;;0.20;0.20;;;;;;;10.69;100.00;96513.69;5033079;28;20045;-58
2024/02/10 11:31:37;;;;;;;0.17;0.17;;;;;;;10.21;100.00;96514.34;5037602;28;20051;-59
2024/02/10 11:34:05;;;;;;;0.20;0.20;;;;;;;10.27;100.00;96515.81;5031064;28;20144;-57
2024/02/10 11:36:34;;;;;;;0.20;0.20;;;;;;;10.27;100.00;96513.94;5017883;28;20060;-57
2024/02/10 11:39:03;;;;;;;0.20;0.20;;;;;;;10.07;100.00;96515.22;5006785;28;20071;-57
2024/02/10 11:41:31;;;;;;;0.20;0.20;;;;;;;10.21;100.00;96512.50;5019808;28;20045;-57